Time;durP1;ratioP1;P1;durP2;ratioP2;P2;SDS_P1;SDS_P2;PMS_P1;PMS_P2;Temp;Humidity;BMP_temperature;BMP_pressure;BME280_temperature;BME280_humidity;BME280_pressure;Samples;Min_cycle;Max_cycle;Signal;HPM_P1;HPM_P2
2022/07/29 00:00:30;;;;;;;3.60;1.60;;;15.50;99.90;;;;;;5001181;28;20050;-71
2022/07/29 00:02:57;;;;;;;2.63;1.52;;;15.60;99.90;;;;;;5003114;28;20377;-70
2022/07/29 00:05:23;;;;;;;4.10;2.00;;;15.60;99.90;;;;;;5034737;28;20128;-65
2022/07/29 00:07:49;;;;;;;3.80;1.88;;;15.60;99.90;;;;;;4983456;28;20046;-66
2022/07/29 00:10:15;;;;;;;3.88;1.95;;;15.50;99.90;;;;;;5003034;28;20101;-68
2022/07/29 00:12:41;;;;;;;5.07;1.83;;;15.50;99.90;;;;;;5007234;28;20054;-67
2022/07/29 00:15:07;;;;;;;2.45;2.00;;;15.60;99.90;;;;;;5007914;28;20056;-67
2022/07/29 00:17:34;;;;;;;2.97;1.75;;;15.60;99.90;;;;;;5011163;28;20496;-68
2022/07/29 00:20:00;;;;;;;3.42;1.63;;;15.50;99.90;;;;;;5004969;28;20054;-68
2022/07/29 00:22:26;;;;;;;4.65;1.90;;;15.60;99.90;;;;;;4991459;28;20049;-66
2022/07/29 00:24:52;;;;;;;3.25;1.75;;;15.50;99.90;;;;;;5006275;28;20505;-68
2022/07/29 00:27:18;;;;;;;3.65;1.83;;;15.50;99.90;;;;;;5002777;28;20096;-65
2022/07/29 00:29:45;;;;;;;3.00;1.85;;;15.50;99.90;;;;;;4991218;28;20081;-67
2022/07/29 00:32:11;;;;;;;3.22;1.42;;;15.50;99.90;;;;;;5001909;28;20088;-66
2022/07/29 00:37:22;;;;;;;5.13;1.80;;;15.50;99.90;;;;;;5000408;28;20060;-66
2022/07/29 00:39:48;;;;;;;5.40;2.15;;;15.50;99.90;;;;;;4982544;28;20058;-68
2022/07/29 00:42:14;;;;;;;1.65;1.50;;;15.50;99.90;;;;;;4987468;28;20144;-65
2022/07/29 00:44:41;;;;;;;5.25;1.92;;;15.50;99.90;;;;;;4987062;28;20046;-65
2022/07/29 00:47:09;;;;;;;3.22;1.77;;;15.50;99.90;;;;;;5010985;28;20046;-65
2022/07/29 00:49:36;;;;;;;3.40;1.70;;;15.50;99.90;;;;;;5010833;28;20050;-66
2022/07/29 00:52:03;;;;;;;3.05;2.00;;;15.50;99.90;;;;;;5008883;28;20073;-66
2022/07/29 00:54:30;;;;;;;4.15;2.10;;;15.50;99.90;;;;;;5010471;28;20049;-67
2022/07/29 00:57:00;;;;;;;5.35;2.08;;;15.50;99.90;;;;;;5008247;28;20447;-66
2022/07/29 00:59:27;;;;;;;2.45;1.77;;;15.50;99.90;;;;;;4994436;28;20435;-65
2022/07/29 01:01:55;;;;;;;8.60;2.22;;;15.50;99.90;;;;;;5008800;28;20057;-66
2022/07/29 01:04:21;;;;;;;2.60;1.80;;;15.50;99.90;;;;;;5007958;28;20053;-66
2022/07/29 01:06:51;;;;;;;4.18;1.80;;;15.50;99.90;;;;;;4990303;28;20057;-65
2022/07/29 01:09:18;;;;;;;3.35;1.77;;;15.50;99.90;;;;;;5010010;28;20514;-67
2022/07/29 01:11:47;;;;;;;3.60;1.88;;;15.50;99.90;;;;;;5009691;28;20073;-65
2022/07/29 01:14:15;;;;;;;6.80;1.90;;;15.50;99.90;;;;;;5010878;28;20046;-65
2022/07/29 01:17:36;;;;;;;5.68;1.73;;;15.50;99.90;;;;;;5008517;28;20044;-68
2022/07/29 01:20:03;;;;;;;3.57;1.90;;;15.50;99.90;;;;;;4932347;29;20530;-66
2022/07/29 01:22:35;;;;;;;2.97;1.65;;;15.50;99.90;;;;;;4963653;28;20373;-67
2022/07/29 01:25:39;;;;;;;4.50;1.63;;;15.50;99.90;;;;;;5003605;28;20112;-65
2022/07/29 01:28:32;;;;;;;3.83;1.90;;;15.50;99.90;;;;;;5008348;28;20349;-66
2022/07/29 01:31:00;;;;;;;2.75;1.50;;;15.50;99.90;;;;;;5009221;28;20052;-66
2022/07/29 01:36:18;;;;;;;2.50;1.45;;;15.40;99.90;;;;;;5012250;28;20125;-68
2022/07/29 01:38:49;;;;;;;4.13;1.65;;;15.50;99.90;;;;;;5009030;28;20064;-67
2022/07/29 01:41:17;;;;;;;;;;;15.50;99.90;;;;;;5025799;28;20130;-70
2022/07/29 01:44:01;;;;;;;2.20;1.70;;;15.40;99.90;;;;;;5026063;28;19944;-66
2022/07/29 01:46:39;;;;;;;2.55;1.60;;;15.50;99.90;;;;;;4992686;28;20449;-65
2022/07/29 01:49:19;;;;;;;1.67;1.42;;;15.50;99.90;;;;;;4996145;28;20598;-67
2022/07/29 01:51:51;;;;;;;2.17;1.48;;;15.50;99.90;;;;;;5033886;28;20046;-67
2022/07/29 01:54:24;;;;;;;2.55;1.65;;;15.50;99.90;;;;;;5009485;28;20512;-65
2022/07/29 01:56:53;;;;;;;6.55;1.70;;;15.50;99.90;;;;;;5010225;28;20054;-65
2022/07/29 01:59:21;;;;;;;2.97;1.63;;;15.50;99.90;;;;;;5009890;28;20054;-65
2022/07/29 02:01:53;;;;;;;3.35;1.65;;;15.50;99.90;;;;;;5009942;28;20179;-66
2022/07/29 02:04:20;;;;;;;4.82;1.73;;;15.50;99.90;;;;;;5003570;28;20143;-66
2022/07/29 02:06:49;;;;;;;3.20;1.55;;;15.50;99.90;;;;;;5012495;28;20038;-68
2022/07/29 02:09:15;;;;;;;3.45;1.45;;;15.50;99.90;;;;;;4997448;28;20381;-66
2022/07/29 02:11:48;;;;;;;2.25;1.58;;;15.50;99.90;;;;;;5013369;28;20054;-66
2022/07/29 02:14:17;;;;;;;6.05;1.40;;;15.50;99.90;;;;;;5011622;28;20128;-68
2022/07/29 02:16:45;;;;;;;4.18;1.40;;;15.50;99.90;;;;;;5020100;28;20057;-67
2022/07/29 02:19:13;;;;;;;2.33;1.50;;;15.50;99.90;;;;;;5013658;28;20092;-65
2022/07/29 02:21:40;;;;;;;3.63;1.30;;;15.50;99.90;;;;;;4995273;28;20472;-65
2022/07/29 02:24:08;;;;;;;4.20;1.67;;;15.50;99.90;;;;;;4997067;28;20420;-66
2022/07/29 02:26:34;;;;;;;3.00;1.58;;;15.40;99.90;;;;;;5013328;28;20050;-67
2022/07/29 02:29:02;;;;;;;4.93;1.25;;;15.50;99.90;;;;;;5010935;28;20512;-66
2022/07/29 02:31:33;;;;;;;2.63;1.48;;;15.50;99.90;;;;;;5005752;28;20484;-66
2022/07/29 02:34:02;;;;;;;4.72;1.60;;;15.50;99.90;;;;;;5009335;28;20058;-67
2022/07/29 02:36:29;;;;;;;4.80;1.80;;;15.40;99.90;;;;;;5014982;28;20724;-66
2022/07/29 02:39:00;;;;;;;4.45;1.60;;;15.50;99.90;;;;;;5009991;28;20058;-67
2022/07/29 02:41:33;;;;;;;2.92;1.55;;;15.50;99.90;;;;;;5014561;28;20116;-67
2022/07/29 02:44:06;;;;;;;4.00;1.67;;;15.40;99.90;;;;;;5012274;28;20104;-68
2022/07/29 02:46:36;;;;;;;4.65;2.05;;;15.40;99.90;;;;;;5012724;28;20053;-66
2022/07/29 02:49:10;;;;;;;4.72;1.50;;;15.40;99.90;;;;;;5013012;28;20140;-66
2022/07/29 02:51:55;;;;;;;4.15;1.80;;;15.40;99.90;;;;;;5016908;28;20080;-67
2022/07/29 02:54:44;;;;;;;6.20;1.65;;;15.40;99.90;;;;;;5009806;28;20099;-67
2022/07/29 02:57:19;;;;;;;2.58;1.55;;;15.30;99.90;;;;;;5027565;28;20054;-67
2022/07/29 02:59:47;;;;;;;3.55;1.75;;;15.40;99.90;;;;;;5000582;28;20057;-69
2022/07/29 03:02:16;;;;;;;3.97;1.65;;;15.40;99.90;;;;;;4995659;28;20049;-66
2022/07/29 03:04:43;;;;;;;4.35;1.85;;;15.30;99.90;;;;;;5005736;28;20050;-66
2022/07/29 03:07:12;;;;;;;5.60;1.98;;;15.30;99.90;;;;;;4996357;28;20210;-65
2022/07/29 03:09:41;;;;;;;2.92;1.60;;;15.30;99.90;;;;;;5012607;28;20129;-66
2022/07/29 03:12:08;;;;;;;3.78;1.90;;;15.30;99.90;;;;;;5011399;28;20057;-66
2022/07/29 03:14:35;;;;;;;2.97;1.73;;;15.30;99.90;;;;;;5026975;28;20038;-65
2022/07/29 03:17:03;;;;;;;3.97;1.60;;;15.30;99.90;;;;;;5010816;28;20091;-66
2022/07/29 03:19:29;;;;;;;2.92;1.50;;;15.30;99.90;;;;;;5018247;28;20053;-65
2022/07/29 03:21:57;;;;;;;5.78;1.70;;;15.30;99.90;;;;;;4995276;28;20125;-66
2022/07/29 03:24:32;;;;;;;4.80;1.60;;;15.30;99.90;;;;;;5011885;28;20042;-66
2022/07/29 03:26:58;;;;;;;4.35;1.83;;;15.30;99.90;;;;;;5012684;28;20489;-66
2022/07/29 03:29:25;;;;;;;4.50;1.80;;;15.30;99.90;;;;;;4995688;28;20135;-65
2022/07/29 03:31:51;;;;;;;3.38;1.90;;;15.20;99.90;;;;;;4982600;28;20301;-66
2022/07/29 03:34:17;;;;;;;3.70;1.70;;;15.20;99.90;;;;;;5006265;28;20041;-66
2022/07/29 03:36:43;;;;;;;5.88;1.70;;;15.20;99.90;;;;;;5023998;28;20049;-66
2022/07/29 03:39:13;;;;;;;6.20;2.30;;;15.20;99.90;;;;;;5010258;28;20056;-66
2022/07/29 03:41:44;;;;;;;7.97;2.00;;;15.20;99.90;;;;;;4994351;28;20160;-67
2022/07/29 03:44:12;;;;;;;5.75;2.08;;;15.20;99.90;;;;;;5011292;28;20061;-66
2022/07/29 03:46:39;;;;;;;3.15;1.95;;;15.20;99.90;;;;;;5016937;28;20136;-68
2022/07/29 03:49:08;;;;;;;3.50;1.65;;;15.20;99.90;;;;;;5011106;28;20239;-66
2022/07/29 03:51:35;;;;;;;8.20;2.20;;;15.20;99.90;;;;;;5010151;28;20129;-66
2022/07/29 03:54:03;;;;;;;2.70;2.00;;;15.20;99.90;;;;;;5009295;28;20049;-65
2022/07/29 03:56:31;;;;;;;2.47;1.70;;;15.20;99.90;;;;;;5008605;28;20081;-68
2022/07/29 03:58:59;;;;;;;3.65;1.83;;;15.20;99.90;;;;;;5008121;28;20046;-66
2022/07/29 04:01:26;;;;;;;4.72;1.92;;;15.20;99.90;;;;;;5006742;28;20536;-66
2022/07/29 04:03:52;;;;;;;4.07;1.98;;;15.10;99.90;;;;;;4995200;28;20053;-67
2022/07/29 04:06:19;;;;;;;4.93;1.85;;;15.10;99.90;;;;;;5011418;28;20510;-66
2022/07/29 04:08:45;;;;;;;2.80;1.80;;;15.10;99.90;;;;;;5011480;28;20060;-66
2022/07/29 04:11:11;;;;;;;4.38;1.85;;;15.10;99.90;;;;;;5011119;28;20050;-65
2022/07/29 04:13:37;;;;;;;5.10;1.73;;;15.20;99.90;;;;;;4994875;28;20056;-67
2022/07/29 04:16:03;;;;;;;3.95;2.10;;;15.10;99.90;;;;;;4995059;28;20131;-66
2022/07/29 04:18:30;;;;;;;3.08;1.80;;;15.10;99.90;;;;;;5007894;28;20195;-65
2022/07/29 04:20:58;;;;;;;4.38;2.08;;;15.20;99.90;;;;;;5008877;28;20061;-65
2022/07/29 04:23:26;;;;;;;6.22;1.88;;;15.20;99.90;;;;;;5008208;28;20053;-65
2022/07/29 04:25:52;;;;;;;4.95;1.77;;;15.20;99.90;;;;;;4994545;28;20392;-65
2022/07/29 04:28:18;;;;;;;2.97;2.00;;;15.20;99.90;;;;;;5011013;28;20072;-66
2022/07/29 04:30:44;;;;;;;4.53;2.05;;;15.20;99.90;;;;;;5010822;28;20184;-68
2022/07/29 04:33:10;;;;;;;6.90;1.90;;;15.30;99.90;;;;;;5010826;28;20049;-66
2022/07/29 04:35:37;;;;;;;5.25;2.00;;;15.20;99.90;;;;;;5008170;28;20052;-67
2022/07/29 04:38:05;;;;;;;4.63;1.85;;;15.30;99.90;;;;;;4992284;28;20061;-65
2022/07/29 04:40:32;;;;;;;4.10;2.10;;;15.30;99.90;;;;;;5009367;28;20064;-67
2022/07/29 04:43:00;;;;;;;4.05;1.92;;;15.30;99.90;;;;;;5010800;28;20184;-66
2022/07/29 04:45:27;;;;;;;4.57;2.05;;;15.30;99.90;;;;;;5008067;28;20497;-71
2022/07/29 04:47:54;;;;;;;4.07;1.98;;;15.40;99.90;;;;;;5009263;28;20539;-66
2022/07/29 04:50:20;;;;;;;7.55;2.25;;;15.30;99.90;;;;;;5010454;28;20049;-66
2022/07/29 04:52:46;;;;;;;3.63;1.95;;;15.40;99.90;;;;;;5009919;28;20050;-66
2022/07/29 04:55:12;;;;;;;3.28;1.90;;;15.40;99.90;;;;;;5014918;28;20049;-65
2022/07/29 04:57:38;;;;;;;3.90;2.10;;;15.40;99.90;;;;;;4997288;28;20522;-66
2022/07/29 05:00:06;;;;;;;5.45;2.15;;;15.40;99.90;;;;;;5010010;28;20049;-66
2022/07/29 05:02:32;;;;;;;2.47;1.80;;;15.40;99.90;;;;;;5010277;28;20057;-67
2022/07/29 05:04:58;;;;;;;4.25;1.90;;;15.40;99.90;;;;;;5009435;28;20508;-66
2022/07/29 05:07:23;;;;;;;3.90;2.08;;;15.40;99.90;;;;;;5009191;28;20053;-66
2022/07/29 05:09:50;;;;;;;5.93;2.25;;;15.40;99.90;;;;;;5019489;28;20535;-66
2022/07/29 05:12:15;;;;;;;5.93;2.03;;;15.50;99.90;;;;;;5010565;28;20400;-72
2022/07/29 05:14:41;;;;;;;6.45;2.42;;;15.50;99.90;;;;;;5010783;28;20050;-65
2022/07/29 05:17:09;;;;;;;6.75;2.20;;;15.50;99.90;;;;;;5009502;28;20526;-66
2022/07/29 05:19:34;;;;;;;7.03;2.10;;;15.60;99.90;;;;;;5009948;28;20489;-67
2022/07/29 05:22:00;;;;;;;4.25;1.95;;;15.60;99.90;;;;;;5009144;28;20049;-66
2022/07/29 05:24:26;;;;;;;3.38;1.80;;;15.70;99.90;;;;;;4993903;28;20080;-66
2022/07/29 05:26:52;;;;;;;6.15;2.05;;;15.70;99.90;;;;;;5009174;28;20493;-66
2022/07/29 05:29:18;;;;;;;4.85;2.30;;;15.70;99.90;;;;;;5020308;28;20081;-65
2022/07/29 05:31:44;;;;;;;3.90;2.10;;;15.70;99.90;;;;;;5025243;28;20041;-66
2022/07/29 05:34:13;;;;;;;5.10;2.30;;;15.80;99.90;;;;;;5020804;28;20385;-67
2022/07/29 05:36:39;;;;;;;4.40;2.10;;;15.80;99.90;;;;;;4995315;28;20148;-66
2022/07/29 05:39:08;;;;;;;7.70;2.28;;;15.90;99.90;;;;;;5013925;28;20140;-68
2022/07/29 05:41:34;;;;;;;5.97;2.20;;;15.90;99.90;;;;;;5013365;28;20128;-66
2022/07/29 05:44:00;;;;;;;7.68;2.08;;;15.90;99.90;;;;;;5014191;28;20084;-66
2022/07/29 05:46:26;;;;;;;5.20;2.00;;;16.00;99.90;;;;;;5011911;28;20057;-65
2022/07/29 05:48:52;;;;;;;3.35;2.15;;;16.00;99.90;;;;;;5012256;28;20050;-69
2022/07/29 05:51:18;;;;;;;4.43;2.25;;;16.10;99.90;;;;;;4998419;28;20049;-67
2022/07/29 05:53:44;;;;;;;5.85;2.13;;;16.10;99.90;;;;;;5014159;28;20053;-66
2022/07/29 05:56:11;;;;;;;3.90;2.00;;;16.10;99.90;;;;;;4997043;28;20116;-65
2022/07/29 05:58:37;;;;;;;4.00;2.22;;;16.20;99.90;;;;;;4996824;28;20447;-66
2022/07/29 06:01:03;;;;;;;5.38;2.28;;;16.50;99.90;;;;;;5013247;28;20050;-67
2022/07/29 06:03:30;;;;;;;4.20;2.28;;;16.30;99.90;;;;;;5013922;28;20378;-66
2022/07/29 06:05:55;;;;;;;4.88;2.03;;;16.20;99.90;;;;;;5013092;28;20400;-66
2022/07/29 06:08:21;;;;;;;6.30;2.38;;;16.30;99.90;;;;;;5013744;28;20049;-66
2022/07/29 06:10:48;;;;;;;4.25;1.92;;;16.30;99.90;;;;;;4995667;28;20049;-66
2022/07/29 06:13:15;;;;;;;6.55;2.20;;;16.40;99.90;;;;;;5013746;28;20046;-67
2022/07/29 06:15:42;;;;;;;4.10;1.90;;;16.30;99.90;;;;;;5013488;28;20508;-66
2022/07/29 06:18:09;;;;;;;5.50;2.30;;;16.40;99.90;;;;;;5013732;28;20050;-66
2022/07/29 06:20:35;;;;;;;4.97;2.20;;;16.50;99.90;;;;;;5011812;28;20050;-67
2022/07/29 06:23:04;;;;;;;5.75;2.60;;;16.60;99.90;;;;;;5012094;28;20050;-66
2022/07/29 06:25:30;;;;;;;6.45;2.33;;;16.60;99.90;;;;;;5024255;28;20045;-66
2022/07/29 06:27:57;;;;;;;3.92;1.88;;;16.60;99.90;;;;;;4997271;28;20377;-66
2022/07/29 06:30:23;;;;;;;5.88;2.47;;;16.60;99.90;;;;;;4996687;28;20049;-66
2022/07/29 06:32:49;;;;;;;4.93;2.45;;;16.70;99.90;;;;;;4997169;28;20228;-66
2022/07/29 06:35:15;;;;;;;3.30;2.00;;;16.80;99.90;;;;;;5012618;28;20054;-68
2022/07/29 06:37:41;;;;;;;4.28;2.00;;;16.80;99.90;;;;;;5013615;28;20046;-65
2022/07/29 06:42:51;;;;;;;7.07;1.92;;;16.90;99.90;;;;;;5013233;28;20100;-67
2022/07/29 06:45:17;;;;;;;4.78;2.20;;;17.00;99.90;;;;;;4996646;28;20581;-67
2022/07/29 06:47:43;;;;;;;3.65;2.15;;;17.00;99.90;;;;;;4996497;28;20050;-65
2022/07/29 06:50:12;;;;;;;5.10;2.13;;;17.10;99.90;;;;;;5010005;28;20294;-66
2022/07/29 06:52:39;;;;;;;4.78;2.30;;;17.10;99.90;;;;;;4996709;28;20053;-67
2022/07/29 06:55:05;;;;;;;4.63;2.22;;;17.20;99.90;;;;;;5022769;28;20050;-69
2022/07/29 06:57:31;;;;;;;5.05;2.03;;;17.20;99.90;;;;;;5012782;28;20050;-66
2022/07/29 06:59:57;;;;;;;5.88;2.40;;;17.20;99.90;;;;;;4996082;28;20508;-66
2022/07/29 07:02:23;;;;;;;2.55;2.00;;;17.20;99.90;;;;;;5012003;28;20534;-66
2022/07/29 07:04:49;;;;;;;5.03;2.20;;;17.30;99.90;;;;;;5012785;28;20408;-65
2022/07/29 07:07:15;;;;;;;3.65;2.50;;;17.40;99.90;;;;;;4996580;28;20057;-69
2022/07/29 07:09:41;;;;;;;3.70;2.10;;;17.40;99.90;;;;;;4995364;28;20042;-67
2022/07/29 07:12:07;;;;;;;3.47;2.13;;;17.50;99.90;;;;;;5012635;28;20054;-67
2022/07/29 07:14:33;;;;;;;2.45;2.00;;;17.60;99.90;;;;;;5012681;28;20069;-68
2022/07/29 07:17:00;;;;;;;3.75;2.00;;;17.60;99.90;;;;;;4992672;28;20501;-66
2022/07/29 07:19:26;;;;;;;4.88;2.20;;;17.60;99.90;;;;;;4994571;28;20045;-66
2022/07/29 07:21:53;;;;;;;4.38;2.28;;;17.60;99.90;;;;;;5012136;28;20081;-66
2022/07/29 07:24:19;;;;;;;5.07;2.05;;;17.70;99.90;;;;;;5002823;28;20133;-66
2022/07/29 07:26:46;;;;;;;8.77;2.47;;;17.70;99.90;;;;;;5012448;28;20046;-70
2022/07/29 07:29:12;;;;;;;5.35;1.95;;;17.90;99.90;;;;;;4996250;28;20049;-67
2022/07/29 07:31:38;;;;;;;6.70;2.15;;;18.00;99.90;;;;;;5011116;28;20045;-68
2022/07/29 07:34:05;;;;;;;3.13;1.98;;;18.10;99.90;;;;;;5021984;28;20128;-67
2022/07/29 07:36:31;;;;;;;4.35;2.28;;;18.10;99.90;;;;;;5022147;28;20053;-66
2022/07/29 07:38:57;;;;;;;4.75;2.20;;;18.20;99.90;;;;;;5011947;28;20057;-68
2022/07/29 07:41:23;;;;;;;5.70;2.20;;;18.20;99.90;;;;;;5011313;28;20053;-67
2022/07/29 07:43:49;;;;;;;5.40;2.28;;;18.30;99.90;;;;;;5012021;28;20129;-67
2022/07/29 07:46:16;;;;;;;2.67;1.95;;;18.40;99.90;;;;;;4994966;28;20053;-70
2022/07/29 07:48:42;;;;;;;6.75;2.10;;;18.50;99.90;;;;;;4995897;28;20412;-66
2022/07/29 07:51:08;;;;;;;5.78;2.20;;;18.50;99.90;;;;;;5016578;28;20064;-69
2022/07/29 07:53:35;;;;;;;4.28;2.30;;;18.60;99.90;;;;;;5011870;28;20045;-66
2022/07/29 07:56:02;;;;;;;6.13;2.28;;;18.60;99.90;;;;;;5011845;28;20108;-66
2022/07/29 07:58:28;;;;;;;6.68;2.70;;;18.70;99.90;;;;;;5005163;28;20058;-67
2022/07/29 08:00:54;;;;;;;3.38;2.30;;;18.70;99.90;;;;;;5009612;28;20599;-66
2022/07/29 08:03:20;;;;;;;5.97;2.40;;;18.70;99.90;;;;;;5010140;28;20049;-66
2022/07/29 08:05:47;;;;;;;6.07;2.40;;;18.80;99.90;;;;;;5011310;28;20038;-67
2022/07/29 08:08:14;;;;;;;8.18;2.30;;;18.90;99.90;;;;;;5011657;28;20049;-66
2022/07/29 08:10:52;;;;;;;6.43;2.30;;;19.00;99.90;;;;;;4992224;28;20081;-66
2022/07/29 08:13:20;;;;;;;3.92;2.40;;;19.00;99.90;;;;;;5011677;28;20089;-66
2022/07/29 08:15:46;;;;;;;4.45;2.28;;;19.00;99.90;;;;;;5009093;28;20073;-70
2022/07/29 08:18:13;;;;;;;5.30;2.33;;;19.10;99.90;;;;;;5006127;28;20382;-66
2022/07/29 08:20:39;;;;;;;3.53;2.22;;;19.20;99.90;;;;;;5006943;28;20053;-66
2022/07/29 08:23:08;;;;;;;7.35;2.38;;;19.20;99.90;;;;;;5008367;28;20054;-66
2022/07/29 08:25:36;;;;;;;4.82;2.55;;;19.30;99.90;;;;;;5008802;28;20053;-66
2022/07/29 08:28:02;;;;;;;4.72;2.30;;;19.40;99.90;;;;;;5008915;28;20144;-67
2022/07/29 08:30:28;;;;;;;4.20;2.40;;;19.40;99.90;;;;;;5025409;28;20045;-67
2022/07/29 08:32:54;;;;;;;3.30;2.22;;;19.40;99.90;;;;;;5024606;28;20365;-67
2022/07/29 08:35:39;;;;;;;5.80;2.63;;;19.50;99.90;;;;;;4982241;28;20046;-67
2022/07/29 08:38:05;;;;;;;6.40;2.10;;;19.50;99.90;;;;;;5011104;28;20054;-67
2022/07/29 08:40:34;;;;;;;6.55;2.22;;;19.70;99.90;;;;;;5004927;28;20101;-69
2022/07/29 08:43:08;;;;;;;5.13;2.35;;;19.80;99.90;;;;;;5005708;28;20049;-71
2022/07/29 08:45:49;;;;;;;6.53;2.78;;;20.00;99.90;;;;;;5010458;28;20054;-71
2022/07/29 08:48:21;;;;;;;6.22;2.53;;;20.00;99.90;;;;;;5010877;28;20067;-74
2022/07/29 08:50:48;;;;;;;3.70;2.42;;;20.10;99.90;;;;;;5008192;28;20090;-69
2022/07/29 08:53:16;;;;;;;5.18;2.80;;;19.90;99.90;;;;;;5027173;28;20081;-69
2022/07/29 08:55:49;;;;;;;3.95;2.40;;;20.20;99.90;;;;;;5010453;28;20180;-70
2022/07/29 08:58:15;;;;;;;6.63;2.55;;;20.40;99.90;;;;;;5010823;28;20464;-67
2022/07/29 09:00:48;;;;;;;4.20;2.50;;;20.40;99.90;;;;;;5008925;28;20046;-70
2022/07/29 09:03:18;;;;;;;5.65;2.78;;;20.50;99.90;;;;;;5009274;28;20393;-68
2022/07/29 09:05:46;;;;;;;5.18;2.70;;;20.50;99.90;;;;;;4992629;28;20322;-68
2022/07/29 09:08:14;;;;;;;6.40;2.40;;;20.60;99.90;;;;;;5010072;28;20041;-69
2022/07/29 09:10:40;;;;;;;7.28;2.67;;;20.60;99.90;;;;;;5009684;28;20141;-69
2022/07/29 09:13:06;;;;;;;4.72;2.60;;;20.70;99.90;;;;;;5013732;28;20050;-67
2022/07/29 09:15:32;;;;;;;4.68;2.60;;;20.70;99.90;;;;;;4998322;28;20045;-69
2022/07/29 09:17:59;;;;;;;4.45;2.53;;;20.70;99.90;;;;;;4996706;28;20060;-68
2022/07/29 09:21:57;;;;;;;3.97;2.30;;;20.70;99.90;;;;;;5023592;28;20073;-69
2022/07/29 09:23:13;;;;;;;6.20;2.42;;;20.70;99.90;;;;;;5014502;28;20054;-67
2022/07/29 09:25:40;;;;;;;5.53;2.55;;;20.80;99.90;;;;;;4996470;28;20104;-68
2022/07/29 09:28:16;;;;;;;7.05;2.78;;;20.80;99.90;;;;;;5014316;28;20085;-68
2022/07/29 09:30:56;;;;;;;4.70;2.42;;;20.80;99.90;;;;;;5005594;28;20093;-68
2022/07/29 09:33:30;;;;;;;4.67;2.30;;;20.80;99.90;;;;;;5011029;28;20130;-68
2022/07/29 09:36:06;;;;;;;3.67;2.17;;;20.90;99.90;;;;;;5022788;28;20299;-68
2022/07/29 09:38:33;;;;;;;4.43;2.45;;;20.90;99.90;;;;;;5013940;28;20073;-69
2022/07/29 09:41:02;;;;;;;3.78;2.40;;;20.90;99.90;;;;;;5006560;28;20053;-69
2022/07/29 09:43:28;;;;;;;9.27;2.70;;;20.90;99.90;;;;;;5011453;28;20112;-72
2022/07/29 09:45:54;;;;;;;6.75;2.40;;;20.90;99.90;;;;;;5010290;28;20172;-71
2022/07/29 09:48:22;;;;;;;6.53;2.53;;;21.00;99.90;;;;;;5023043;28;20050;-70
2022/07/29 09:50:49;;;;;;;7.65;2.40;;;20.90;99.90;;;;;;5012292;28;20053;-69
2022/07/29 09:53:35;;;;;;;7.57;2.85;;;21.00;99.90;;;;;;5009858;28;20053;-71
2022/07/29 09:56:01;;;;;;;3.97;2.40;;;21.10;99.90;;;;;;5037794;28;20042;-69
2022/07/29 09:58:27;;;;;;;6.40;2.70;;;21.20;99.90;;;;;;5037333;28;20057;-70
2022/07/29 10:00:55;;;;;;;3.85;2.40;;;21.40;99.90;;;;;;5013061;28;20042;-71
2022/07/29 10:03:24;;;;;;;5.70;2.45;;;21.50;99.90;;;;;;5012650;28;20045;-71
2022/07/29 10:06:10;;;;;;;6.65;2.58;;;21.60;99.90;;;;;;5011840;28;20041;-70
2022/07/29 10:08:37;;;;;;;5.18;3.05;;;21.80;99.90;;;;;;5011956;28;20049;-72
2022/07/29 10:11:17;;;;;;;4.35;2.58;;;21.80;99.90;;;;;;5009711;28;20100;-72
2022/07/29 10:13:46;;;;;;;5.87;2.30;;;22.00;99.90;;;;;;5002905;28;20108;-72
2022/07/29 10:16:13;;;;;;;6.43;2.63;;;22.10;99.90;;;;;;4992812;28;20136;-76
2022/07/29 10:18:40;;;;;;;6.82;2.70;;;22.20;99.90;;;;;;4996800;28;20052;-72
2022/07/29 10:21:06;;;;;;;4.25;2.60;;;22.30;99.90;;;;;;5018114;28;20531;-70
2022/07/29 10:23:34;;;;;;;5.43;2.55;;;22.40;99.90;;;;;;5011376;28;20061;-71
2022/07/29 10:26:04;;;;;;;6.27;2.57;;;22.50;99.90;;;;;;5011439;28;20136;-71
2022/07/29 10:28:31;;;;;;;6.72;2.92;;;22.60;99.90;;;;;;4995164;28;20440;-71
2022/07/29 10:31:08;;;;;;;4.30;2.63;;;22.60;99.90;;;;;;4995419;28;20057;-71
2022/07/29 10:34:00;;;;;;;5.63;2.70;;;22.70;99.90;;;;;;5023741;28;20044;-72
2022/07/29 10:36:53;;;;;;;9.93;2.60;;;22.80;99.90;;;;;;5013399;28;20137;-73
2022/07/29 10:39:37;;;;;;;3.97;2.60;;;22.80;99.90;;;;;;5012669;28;20407;-72
2022/07/29 10:42:17;;;;;;;7.28;2.55;;;22.90;99.90;;;;;;5013061;28;20049;-72
2022/07/29 10:44:44;;;;;;;6.75;2.50;;;23.00;99.90;;;;;;5044741;28;20049;-73
2022/07/29 10:47:23;;;;;;;4.13;2.60;;;23.00;99.90;;;;;;5013360;28;20100;-72
2022/07/29 10:50:01;;;;;;;7.60;2.78;;;23.10;99.30;;;;;;5012303;28;20049;-72
2022/07/29 10:52:58;;;;;;;7.88;2.33;;;23.20;99.60;;;;;;5011321;28;20042;-73
2022/07/29 10:55:30;;;;;;;6.78;2.20;;;23.30;97.80;;;;;;5008698;28;20052;-72
2022/07/29 10:58:23;;;;;;;7.68;2.83;;;23.40;97.70;;;;;;5010396;28;20132;-74
2022/07/29 11:00:54;;;;;;;6.25;2.83;;;23.50;97.70;;;;;;5009047;28;20038;-73
2022/07/29 11:03:46;;;;;;;6.97;2.50;;;23.60;97.90;;;;;;5012213;28;20086;-72
2022/07/29 11:06:13;;;;;;;11.02;2.85;;;23.70;96.80;;;;;;5027012;28;20057;-72
2022/07/29 11:08:40;;;;;;;6.30;2.50;;;23.80;97.70;;;;;;5016661;28;20478;-72
2022/07/29 11:11:19;;;;;;;3.67;2.70;;;23.90;97.20;;;;;;5012095;28;20053;-73
2022/07/29 11:13:49;;;;;;;7.72;2.90;;;24.00;96.50;;;;;;4991074;28;20042;-72
2022/07/29 11:16:16;;;;;;;5.35;2.50;;;23.90;96.50;;;;;;5005082;28;20459;-72
2022/07/29 11:19:10;;;;;;;5.05;2.80;;;23.90;96.40;;;;;;5025726;28;20042;-74
2022/07/29 11:21:40;;;;;;;5.95;2.40;;;24.00;94.60;;;;;;5041843;28;20504;-72
2022/07/29 11:24:18;;;;;;;4.37;2.90;;;24.00;96.20;;;;;;5012928;28;20058;-72
2022/07/29 11:26:45;;;;;;;5.40;2.90;;;24.00;95.20;;;;;;5007996;28;20082;-72
2022/07/29 11:29:18;;;;;;;5.55;3.03;;;24.00;95.80;;;;;;5016306;28;20049;-72
2022/07/29 11:31:48;;;;;;;5.60;2.83;;;24.00;94.80;;;;;;5011382;28;20053;-72
2022/07/29 11:34:36;;;;;;;5.78;2.80;;;24.00;94.80;;;;;;5014575;28;20066;-73
2022/07/29 11:37:09;;;;;;;7.07;2.95;;;24.00;94.40;;;;;;5014761;28;20582;-72
2022/07/29 11:40:04;;;;;;;5.90;2.50;;;24.10;94.60;;;;;;5011091;28;20416;-71
2022/07/29 11:42:37;;;;;;;4.28;2.72;;;24.00;94.40;;;;;;4991102;28;20050;-72
2022/07/29 11:45:13;;;;;;;4.22;2.63;;;24.00;94.50;;;;;;5010657;28;20045;-72
2022/07/29 11:47:49;;;;;;;6.53;2.92;;;24.00;94.50;;;;;;5011865;28;20041;-72
2022/07/29 11:50:36;;;;;;;4.80;2.60;;;24.00;94.50;;;;;;5010752;28;20056;-72
2022/07/29 11:53:13;;;;;;;5.40;2.90;;;24.10;94.30;;;;;;4992450;28;20042;-72
2022/07/29 11:55:40;;;;;;;5.50;3.00;;;24.10;94.20;;;;;;5027029;28;20046;-72
2022/07/29 11:58:07;;;;;;;5.63;2.85;;;24.10;94.30;;;;;;5010224;28;20050;-73
2022/07/29 12:00:42;;;;;;;6.30;2.90;;;24.20;94.20;;;;;;5011116;28;20046;-72
2022/07/29 12:03:10;;;;;;;4.65;2.67;;;24.30;94.40;;;;;;4995416;28;20133;-72
2022/07/29 12:05:45;;;;;;;5.10;3.08;;;24.30;94.30;;;;;;5007742;28;20092;-72
2022/07/29 12:08:21;;;;;;;8.32;2.80;;;24.30;94.70;;;;;;5009917;28;20053;-72
2022/07/29 12:10:51;;;;;;;8.80;2.88;;;24.40;94.10;;;;;;5036297;28;20042;-73
2022/07/29 12:13:19;;;;;;;5.05;2.90;;;24.40;94.20;;;;;;4996333;28;20456;-72
2022/07/29 12:15:53;;;;;;;5.88;2.60;;;24.50;94.80;;;;;;5005303;28;20049;-73
2022/07/29 12:18:21;;;;;;;14.00;3.00;;;24.60;95.20;;;;;;4994555;28;20045;-72
2022/07/29 12:20:48;;;;;;;5.75;2.70;;;24.70;94.80;;;;;;4990303;28;20041;-72
2022/07/29 12:23:16;;;;;;;6.63;2.80;;;24.80;94.10;;;;;;4995200;28;20038;-73
2022/07/29 12:25:44;;;;;;;5.88;3.10;;;25.00;93.70;;;;;;5010210;28;20124;-74
2022/07/29 12:28:13;;;;;;;5.68;2.78;;;25.10;92.70;;;;;;5009228;28;20049;-72
2022/07/29 12:30:45;;;;;;;8.40;3.17;;;25.10;92.70;;;;;;5006934;28;20121;-72
2022/07/29 12:33:18;;;;;;;6.70;2.63;;;25.30;93.40;;;;;;5006358;28;20054;-72
2022/07/29 12:35:47;;;;;;;7.35;2.72;;;25.60;93.50;;;;;;5009496;28;20289;-72
2022/07/29 12:38:15;;;;;;;7.75;2.90;;;25.80;92.60;;;;;;5025242;28;20074;-72
2022/07/29 12:40:43;;;;;;;12.75;3.13;;;26.00;92.40;;;;;;5009575;28;20057;-72
2022/07/29 12:43:17;;;;;;;7.38;3.08;;;26.00;91.60;;;;;;5009502;28;20046;-72
2022/07/29 12:45:49;;;;;;;6.13;2.90;;;26.00;91.70;;;;;;5011586;28;20782;-71
2022/07/29 12:48:16;;;;;;;5.78;3.00;;;25.90;91.10;;;;;;5010457;28;20042;-75
2022/07/29 12:51:00;;;;;;;5.88;2.78;;;25.90;91.40;;;;;;5008728;28;20520;-72
2022/07/29 12:53:26;;;;;;;5.72;3.03;;;25.80;90.60;;;;;;4994758;28;20054;-71
2022/07/29 12:55:54;;;;;;;5.20;2.78;;;25.70;91.10;;;;;;4992451;28;20096;-73
2022/07/29 12:58:46;;;;;;;7.47;3.00;;;25.60;90.30;;;;;;5004791;28;20045;-74
2022/07/29 13:01:15;;;;;;;6.20;3.40;;;25.50;90.40;;;;;;4991248;28;20416;-72
2022/07/29 13:03:45;;;;;;;6.35;2.85;;;25.30;90.40;;;;;;4985645;28;20568;-74
2022/07/29 13:06:32;;;;;;;5.43;2.80;;;25.20;91.10;;;;;;5014521;28;20046;-72
2022/07/29 13:09:08;;;;;;;5.32;2.90;;;25.10;91.00;;;;;;4980200;28;20049;-72